Time;durP1;ratioP1;P1;durP2;ratioP2;P2;SDS_P1;SDS_P2;PMS_P1;PMS_P2;Temp;Humidity;BMP_temperature;BMP_pressure;BME280_temperature;BME280_humidity;BME280_pressure;Samples;Min_cycle;Max_cycle;Signal;HPM_P1;HPM_P2
2023/12/10 00:02:15;;;;;;;11.07;4.27;;;10.20;99.90;;;;;;5108143;28;20621;-71
2023/12/10 00:04:40;;;;;;;11.80;3.23;;;10.30;99.90;;;;;;5096456;28;20541;-71
2023/12/10 00:07:06;;;;;;;11.13;3.30;;;10.20;99.90;;;;;;5096601;28;20641;-71
2023/12/10 00:09:32;;;;;;;10.00;3.07;;;10.10;99.90;;;;;;5096293;28;20222;-71
2023/12/10 00:11:57;;;;;;;12.37;3.50;;;10.10;99.90;;;;;;5102227;28;20509;-71
2023/12/10 00:14:24;;;;;;;9.50;3.00;;;10.10;99.90;;;;;;5116889;28;20186;-70
2023/12/10 00:16:50;;;;;;;11.70;3.33;;;10.10;99.90;;;;;;5116577;28;20161;-71
2023/12/10 00:19:16;;;;;;;13.20;3.80;;;10.10;99.90;;;;;;5116569;28;20918;-71
2023/12/10 00:21:42;;;;;;;8.63;3.17;;;10.10;99.90;;;;;;5112664;28;20184;-71
2023/12/10 00:24:08;;;;;;;11.67;3.63;;;10.10;99.90;;;;;;5096101;28;20198;-71
2023/12/10 00:26:34;;;;;;;14.83;4.10;;;10.00;99.90;;;;;;5096056;28;20167;-71
2023/12/10 00:28:59;;;;;;;15.90;4.10;;;10.10;99.90;;;;;;5095950;28;20933;-71
2023/12/10 00:31:25;;;;;;;10.60;4.33;;;10.10;99.90;;;;;;5097188;28;20429;-71
2023/12/10 00:33:51;;;;;;;12.20;4.33;;;10.00;99.90;;;;;;5116268;28;20182;-71
2023/12/10 00:36:18;;;;;;;17.27;4.80;;;10.10;99.90;;;;;;5116725;28;20645;-71
2023/12/10 00:38:45;;;;;;;13.17;4.00;;;10.10;99.90;;;;;;5116357;28;20160;-71
2023/12/10 00:41:11;;;;;;;12.33;4.03;;;10.10;99.90;;;;;;5110138;28;20497;-71
2023/12/10 00:43:40;;;;;;;15.20;4.33;;;10.10;99.90;;;;;;5115033;28;20410;-70
2023/12/10 00:46:06;;;;;;;20.13;3.80;;;10.20;99.90;;;;;;5115958;28;20414;-71
2023/12/10 00:48:37;;;;;;;13.87;4.40;;;10.10;99.90;;;;;;5115810;28;20416;-71
2023/12/10 00:51:03;;;;;;;18.33;4.80;;;10.10;99.90;;;;;;5115371;28;20427;-71
2023/12/10 00:53:28;;;;;;;17.57;4.83;;;10.10;99.90;;;;;;5097562;28;20411;-71
2023/12/10 00:55:54;;;;;;;19.73;5.13;;;10.10;99.90;;;;;;5095973;28;20679;-71
2023/12/10 00:58:20;;;;;;;22.80;5.60;;;10.00;99.90;;;;;;5095383;28;20167;-71
2023/12/10 01:00:45;;;;;;;11.77;4.53;;;10.10;99.90;;;;;;5095208;28;20206;-71
2023/12/10 01:03:11;;;;;;;14.53;4.90;;;10.10;99.90;;;;;;5110514;28;20617;-71
2023/12/10 01:05:37;;;;;;;16.10;4.43;;;10.10;99.90;;;;;;5115677;28;20631;-71
2023/12/10 01:08:03;;;;;;;16.33;5.00;;;10.10;99.90;;;;;;5104838;28;20450;-71
2023/12/10 01:10:29;;;;;;;18.00;5.27;;;10.20;99.90;;;;;;5095072;28;20196;-71
2023/12/10 01:12:55;;;;;;;13.63;5.07;;;10.20;99.90;;;;;;5095096;28;20463;-71
2023/12/10 01:15:29;;;;;;;14.10;4.93;;;10.30;99.90;;;;;;5097091;28;20203;-71
2023/12/10 01:18:00;;;;;;;14.83;5.10;;;10.20;99.90;;;;;;5095063;28;20878;-71
2023/12/10 01:20:37;;;;;;;18.73;5.07;;;10.10;99.90;;;;;;5093634;28;20437;-71
2023/12/10 01:23:04;;;;;;;16.77;5.20;;;10.10;99.90;;;;;;5109378;28;20407;-71
2023/12/10 01:25:30;;;;;;;13.63;4.90;;;10.10;99.90;;;;;;5115051;28;20416;-71
2023/12/10 01:27:55;;;;;;;21.97;5.93;;;10.10;99.90;;;;;;5115607;28;20407;-71
2023/12/10 01:30:24;;;;;;;17.30;5.23;;;10.20;99.90;;;;;;5115375;28;20195;-71
2023/12/10 01:32:55;;;;;;;20.17;5.57;;;10.20;99.90;;;;;;5103146;28;20177;-71
2023/12/10 01:35:21;;;;;;;18.30;6.97;;;10.10;99.90;;;;;;5094666;28;20459;-71
2023/12/10 01:37:47;;;;;;;22.77;6.33;;;10.20;99.90;;;;;;5094765;28;20986;-71
2023/12/10 01:40:13;;;;;;;12.67;4.20;;;10.20;99.90;;;;;;5094924;28;20540;-72
2023/12/10 01:42:42;;;;;;;23.17;5.90;;;10.20;99.90;;;;;;5105253;28;20671;-71
2023/12/10 01:45:08;;;;;;;16.30;5.60;;;10.20;99.90;;;;;;5115208;28;20258;-71
2023/12/10 01:47:35;;;;;;;15.63;4.60;;;10.20;99.90;;;;;;5114991;28;20412;-71
2023/12/10 01:50:06;;;;;;;15.37;5.03;;;10.40;99.90;;;;;;5114730;28;20546;-71
2023/12/10 01:52:34;;;;;;;15.67;5.63;;;10.50;99.90;;;;;;5105341;28;21101;-71
2023/12/10 01:55:02;;;;;;;28.10;6.33;;;10.40;99.90;;;;;;5094237;28;20979;-71
2023/12/10 01:57:33;;;;;;;25.67;5.87;;;10.40;99.90;;;;;;5094267;28;20468;-71
2023/12/10 01:59:59;;;;;;;17.30;5.47;;;10.30;99.90;;;;;;5094039;28;20436;-71
2023/12/10 02:02:28;;;;;;;17.67;5.70;;;10.30;99.90;;;;;;5101680;28;20763;-71
2023/12/10 02:04:54;;;;;;;19.83;5.53;;;10.30;99.90;;;;;;5114562;28;20484;-72
2023/12/10 02:07:23;;;;;;;19.00;5.10;;;10.30;99.90;;;;;;5114691;28;20431;-71
2023/12/10 02:09:50;;;;;;;16.70;5.80;;;10.40;99.90;;;;;;5114341;28;20171;-71
2023/12/10 02:12:17;;;;;;;14.80;4.93;;;10.60;99.90;;;;;;5107691;28;20407;-71
2023/12/10 02:14:43;;;;;;;25.50;5.70;;;10.60;99.90;;;;;;5093876;28;20464;-71
2023/12/10 02:17:09;;;;;;;18.97;5.43;;;10.40;99.90;;;;;;5094392;28;20415;-71
2023/12/10 02:19:35;;;;;;;16.90;5.27;;;10.40;99.90;;;;;;5093750;28;20507;-72
2023/12/10 02:22:02;;;;;;;16.50;5.07;;;10.60;99.90;;;;;;5098299;28;20167;-71
2023/12/10 02:24:51;;;;;;;17.17;5.10;;;10.50;99.90;;;;;;5114092;28;20446;-71
2023/12/10 02:27:17;;;;;;;16.00;5.90;;;10.60;99.90;;;;;;5114113;28;20387;-71
2023/12/10 02:29:43;;;;;;;11.83;3.97;;;10.50;99.90;;;;;;5113932;28;20485;-72
2023/12/10 02:32:09;;;;;;;18.00;4.73;;;10.60;99.90;;;;;;5108508;28;20912;-71
2023/12/10 02:34:35;;;;;;;14.70;4.17;;;10.50;99.90;;;;;;5093698;28;20177;-71
2023/12/10 02:37:02;;;;;;;20.00;5.70;;;10.40;99.90;;;;;;5093795;28;20167;-71
2023/12/10 02:39:27;;;;;;;21.10;5.40;;;10.30;99.90;;;;;;5093564;28;20422;-71
2023/12/10 02:41:53;;;;;;;12.10;3.30;;;10.30;99.90;;;;;;5096423;28;20424;-71
2023/12/10 02:44:18;;;;;;;13.10;3.90;;;10.00;99.90;;;;;;5113968;28;20175;-71
2023/12/10 02:46:44;;;;;;;11.80;3.20;;;9.80;99.90;;;;;;5093060;28;20180;-71
2023/12/10 02:49:10;;;;;;;11.53;3.20;;;9.60;99.90;;;;;;5093361;28;20247;-71
2023/12/10 02:51:36;;;;;;;15.63;4.43;;;9.50;99.90;;;;;;5093165;28;20515;-71
2023/12/10 02:54:01;;;;;;;11.53;4.10;;;9.40;99.90;;;;;;5093285;28;20717;-71
2023/12/10 02:56:27;;;;;;;12.80;4.10;;;9.40;99.90;;;;;;5093073;28;20196;-71
2023/12/10 02:58:52;;;;;;;11.47;3.70;;;9.40;99.90;;;;;;5093215;28;20171;-70
2023/12/10 03:01:18;;;;;;;12.53;3.07;;;9.20;99.90;;;;;;5093109;28;20678;-71
2023/12/10 03:03:44;;;;;;;10.53;3.67;;;9.10;99.90;;;;;;5101036;28;20178;-71
2023/12/10 03:06:10;;;;;;;16.63;3.93;;;9.10;99.90;;;;;;5093675;28;20551;-71
2023/12/10 03:08:36;;;;;;;16.23;3.60;;;9.00;99.90;;;;;;5093434;28;20523;-71
2023/12/10 03:11:01;;;;;;;8.17;3.00;;;9.00;99.90;;;;;;5093296;28;20510;-71
2023/12/10 03:13:27;;;;;;;11.77;3.60;;;8.90;99.90;;;;;;5108674;28;20179;-70
2023/12/10 03:15:52;;;;;;;6.90;2.47;;;8.70;99.90;;;;;;5113292;28;20203;-71
2023/12/10 03:18:18;;;;;;;11.37;2.97;;;8.70;99.90;;;;;;5113553;28;20511;-71
2023/12/10 03:20:44;;;;;;;7.70;2.00;;;8.60;99.90;;;;;;5113210;28;20185;-71
2023/12/10 03:23:09;;;;;;;5.03;2.00;;;8.50;99.90;;;;;;5100034;28;20662;-72
2023/12/10 03:25:35;;;;;;;10.93;2.83;;;8.60;99.90;;;;;;5092920;28;20261;-72
2023/12/10 03:28:00;;;;;;;6.30;2.00;;;8.60;99.90;;;;;;5092788;28;20632;-72
2023/12/10 03:30:26;;;;;;;6.77;2.27;;;8.50;99.90;;;;;;5092967;28;20192;-71
2023/12/10 03:32:51;;;;;;;8.60;2.50;;;8.50;99.90;;;;;;5103491;28;20219;-71
2023/12/10 03:35:17;;;;;;;6.27;2.10;;;8.40;99.90;;;;;;5112965;28;20689;-71
2023/12/10 03:37:43;;;;;;;10.63;2.43;;;8.40;99.90;;;;;;5113056;28;20173;-70
2023/12/10 03:40:09;;;;;;;8.77;2.40;;;8.40;99.90;;;;;;5113469;28;20225;-71
2023/12/10 03:42:35;;;;;;;9.07;2.57;;;8.40;99.90;;;;;;5105018;28;20230;-71
2023/12/10 03:45:00;;;;;;;9.37;2.67;;;8.60;99.90;;;;;;5092697;28;20415;-71
2023/12/10 03:47:26;;;;;;;7.33;2.60;;;8.60;99.90;;;;;;5093281;28;20191;-71
2023/12/10 03:49:52;;;;;;;9.80;3.10;;;8.70;99.90;;;;;;5092905;28;20261;-71
2023/12/10 03:52:17;;;;;;;7.30;2.37;;;8.80;99.90;;;;;;5098285;28;20167;-71
2023/12/10 03:54:43;;;;;;;14.30;3.53;;;8.90;99.90;;;;;;5113173;28;20187;-71
2023/12/10 03:57:08;;;;;;;15.00;3.63;;;8.80;99.90;;;;;;5113499;28;20238;-71
2023/12/10 03:59:34;;;;;;;10.97;3.30;;;8.80;99.90;;;;;;5112985;28;20207;-71
2023/12/10 04:01:59;;;;;;;11.40;3.17;;;8.90;99.90;;;;;;5110915;28;20665;-71
2023/12/10 04:04:25;;;;;;;9.70;3.13;;;8.90;99.90;;;;;;5092831;28;20173;-70
2023/12/10 04:06:51;;;;;;;13.00;4.27;;;9.00;99.90;;;;;;5092485;28;20162;-71
2023/12/10 04:09:16;;;;;;;11.07;2.93;;;9.10;99.90;;;;;;5092506;28;20658;-71
2023/12/10 04:11:42;;;;;;;12.10;3.50;;;9.20;99.90;;;;;;5092476;28;20263;-72
2023/12/10 04:14:09;;;;;;;11.30;3.67;;;9.20;99.90;;;;;;5112822;28;20164;-71
2023/12/10 04:16:35;;;;;;;10.00;3.27;;;9.40;99.90;;;;;;5112698;28;20193;-71
2023/12/10 04:19:01;;;;;;;9.37;3.60;;;9.30;99.90;;;;;;5112786;28;20400;-71
2023/12/10 04:21:26;;;;;;;11.50;3.73;;;9.40;99.90;;;;;;5094453;28;20897;-71
2023/12/10 04:23:52;;;;;;;9.90;2.90;;;9.60;99.90;;;;;;5112759;28;20269;-71
2023/12/10 04:26:18;;;;;;;18.93;3.80;;;9.70;99.90;;;;;;5116585;28;20178;-71
2023/12/10 04:28:44;;;;;;;12.10;3.07;;;9.80;99.90;;;;;;5116673;28;20173;-71
2023/12/10 04:31:10;;;;;;;12.57;3.30;;;9.80;99.90;;;;;;5116515;28;20430;-71
2023/12/10 04:33:36;;;;;;;11.90;2.83;;;9.80;99.90;;;;;;5100242;28;20183;-71
2023/12/10 04:36:01;;;;;;;13.17;3.60;;;9.80;99.90;;;;;;5095817;28;20450;-72
2023/12/10 04:38:28;;;;;;;18.33;3.80;;;9.70;99.90;;;;;;5095800;28;20165;-71
2023/12/10 04:40:53;;;;;;;11.67;3.40;;;9.70;99.90;;;;;;5095525;28;20195;-71
2023/12/10 04:43:20;;;;;;;11.03;3.93;;;9.80;99.90;;;;;;5108951;28;20417;-71
2023/12/10 04:45:45;;;;;;;15.03;3.77;;;9.90;99.90;;;;;;5116013;28;20592;-71
2023/12/10 04:48:12;;;;;;;10.50;3.30;;;9.70;99.90;;;;;;5116260;28;20410;-71
2023/12/10 04:50:39;;;;;;;9.03;3.13;;;9.50;99.90;;;;;;5115876;28;20546;-71
2023/12/10 04:53:04;;;;;;;10.60;3.07;;;9.60;99.90;;;;;;5115895;28;20410;-71
2023/12/10 04:55:30;;;;;;;14.23;3.20;;;9.60;99.90;;;;;;5115860;28;20550;-70
2023/12/10 04:57:56;;;;;;;16.23;3.50;;;9.60;99.90;;;;;;5115777;28;20202;-71
2023/12/10 05:00:21;;;;;;;13.53;3.77;;;9.60;99.90;;;;;;5115747;28;20235;-70
2023/12/10 05:02:47;;;;;;;15.90;3.40;;;9.50;99.90;;;;;;5107178;28;20182;-71
2023/12/10 05:05:13;;;;;;;13.57;3.37;;;9.50;99.90;;;;;;5098439;28;20178;-71
2023/12/10 05:07:38;;;;;;;13.73;3.63;;;9.50;99.90;;;;;;5115943;28;20177;-71
2023/12/10 05:10:05;;;;;;;13.33;3.70;;;9.60;99.90;;;;;;5115541;28;20436;-71
2023/12/10 05:12:31;;;;;;;9.47;3.67;;;9.60;99.90;;;;;;5109546;28;20193;-71
2023/12/10 05:14:57;;;;;;;15.63;3.20;;;9.70;99.90;;;;;;5095028;28;20453;-71
2023/12/10 05:17:22;;;;;;;13.50;3.37;;;9.90;99.90;;;;;;5095305;28;20174;-71
2023/12/10 05:19:48;;;;;;;7.60;3.47;;;9.90;99.90;;;;;;5095007;28;20166;-71
2023/12/10 05:22:13;;;;;;;8.03;3.50;;;9.90;99.90;;;;;;5098349;28;20169;-71
2023/12/10 05:24:40;;;;;;;11.43;3.80;;;9.80;99.90;;;;;;5115280;28;20169;-71
2023/12/10 05:27:06;;;;;;;14.50;4.03;;;9.80;99.90;;;;;;5115604;28;20175;-71
2023/12/10 05:29:31;;;;;;;13.47;3.33;;;9.80;99.90;;;;;;5115509;28;20404;-71
2023/12/10 05:31:57;;;;;;;13.43;3.20;;;9.60;99.90;;;;;;5114029;28;20196;-71
2023/12/10 05:34:26;;;;;;;9.57;3.93;;;9.60;99.90;;;;;;5094962;28;20167;-70
2023/12/10 05:36:51;;;;;;;13.10;3.33;;;9.60;99.90;;;;;;5094736;28;20178;-71
2023/12/10 05:39:17;;;;;;;8.60;3.03;;;9.60;99.90;;;;;;5094677;28;20411;-71
2023/12/10 05:41:42;;;;;;;12.90;3.67;;;9.70;99.90;;;;;;5094518;28;20195;-71
2023/12/10 05:44:08;;;;;;;13.93;3.07;;;9.60;99.90;;;;;;5113715;28;20549;-71
2023/12/10 05:46:34;;;;;;;15.63;3.83;;;9.50;99.90;;;;;;5114954;28;20169;-72
2023/12/10 05:49:00;;;;;;;13.17;3.13;;;9.30;99.90;;;;;;5114881;28;20171;-71
2023/12/10 05:51:25;;;;;;;11.53;3.50;;;9.40;99.90;;;;;;5114762;28;20428;-71
2023/12/10 05:53:51;;;;;;;18.60;4.23;;;9.50;99.90;;;;;;5097914;28;20587;-71
2023/12/10 05:56:17;;;;;;;10.83;3.63;;;9.50;99.90;;;;;;5094238;28;20202;-71
2023/12/10 05:58:42;;;;;;;13.50;3.30;;;9.40;99.90;;;;;;5094332;28;20179;-71
2023/12/10 06:01:08;;;;;;;10.47;3.23;;;9.50;99.90;;;;;;5094054;28;20818;-71
2023/12/10 06:03:34;;;;;;;13.77;4.33;;;9.50;99.90;;;;;;5094440;28;20169;-71
2023/12/10 06:06:00;;;;;;;10.53;3.30;;;9.50;99.90;;;;;;5094247;28;20669;-71
2023/12/10 06:08:25;;;;;;;10.50;3.50;;;9.60;99.90;;;;;;5094471;28;20235;-71
2023/12/10 06:10:51;;;;;;;13.80;4.40;;;9.60;99.90;;;;;;5092803;28;20268;-73
2023/12/10 06:13:16;;;;;;;12.07;3.90;;;9.70;99.90;;;;;;5105607;28;20172;-74
2023/12/10 06:15:43;;;;;;;16.23;3.17;;;9.60;99.90;;;;;;5114639;28;20213;-73
2023/12/10 06:18:09;;;;;;;10.93;3.43;;;9.60;99.90;;;;;;5114558;28;20186;-71
2023/12/10 06:20:35;;;;;;;7.17;2.97;;;9.50;99.90;;;;;;5114403;28;20421;-73
2023/12/10 06:23:01;;;;;;;12.27;2.87;;;9.50;99.90;;;;;;5105030;28;20642;-73
2023/12/10 06:25:27;;;;;;;9.50;3.20;;;9.50;99.90;;;;;;5093740;28;20421;-73
2023/12/10 06:27:54;;;;;;;9.73;3.03;;;9.50;99.90;;;;;;5093718;28;20985;-74
2023/12/10 06:30:19;;;;;;;7.60;2.97;;;9.50;99.90;;;;;;5093578;28;20187;-73
2023/12/10 06:32:45;;;;;;;7.17;2.40;;;9.60;99.90;;;;;;5100516;28;20411;-73
2023/12/10 06:35:11;;;;;;;7.63;2.87;;;9.60;99.90;;;;;;5101975;28;20209;-74
2023/12/10 06:37:37;;;;;;;15.50;3.43;;;9.50;99.90;;;;;;5093824;28;20568;-73
2023/12/10 06:40:05;;;;;;;10.13;3.20;;;9.60;99.90;;;;;;5094462;28;20801;-73
2023/12/10 06:42:31;;;;;;;10.00;3.43;;;9.60;99.90;;;;;;5098351;28;20402;-73
2023/12/10 06:44:57;;;;;;;7.90;2.93;;;9.60;99.90;;;;;;5114086;28;20408;-73
2023/12/10 06:47:23;;;;;;;9.13;2.87;;;9.50;99.90;;;;;;5113363;28;20415;-72
2023/12/10 06:49:48;;;;;;;14.63;3.50;;;9.40;99.90;;;;;;5113702;28;20175;-74
2023/12/10 06:52:14;;;;;;;11.70;2.93;;;9.40;99.90;;;;;;5108199;28;20185;-74
2023/12/10 06:54:40;;;;;;;9.40;2.50;;;9.50;99.90;;;;;;5093279;28;20250;-73
2023/12/10 06:57:05;;;;;;;6.00;2.43;;;9.80;99.90;;;;;;5093182;28;20157;-73
2023/12/10 06:59:31;;;;;;;8.17;3.20;;;9.80;99.90;;;;;;5109213;28;20193;-73
2023/12/10 07:01:56;;;;;;;11.40;2.93;;;9.70;99.90;;;;;;5113363;28;20575;-74
2023/12/10 07:04:23;;;;;;;4.37;2.50;;;9.50;99.90;;;;;;5112607;28;20245;-73
2023/12/10 07:06:48;;;;;;;12.40;3.30;;;9.50;99.90;;;;;;5093167;28;20185;-74
2023/12/10 07:09:14;;;;;;;7.47;3.60;;;9.60;99.90;;;;;;5093286;28;20409;-74
2023/12/10 07:11:39;;;;;;;9.77;2.70;;;9.50;99.90;;;;;;5093044;28;20195;-73
2023/12/10 07:14:05;;;;;;;10.00;3.03;;;9.50;99.90;;;;;;5110497;28;20187;-74
2023/12/10 07:16:31;;;;;;;8.93;3.00;;;9.60;99.90;;;;;;5113378;28;20650;-73
2023/12/10 07:18:56;;;;;;;16.70;8.53;;;9.50;99.90;;;;;;5105974;28;20178;-74
2023/12/10 07:21:22;;;;;;;41.20;30.70;;;9.50;99.90;;;;;;5084096;28;20280;-74
2023/12/10 07:23:48;;;;;;;26.50;16.50;;;9.60;99.90;;;;;;5084221;28;20242;-75
2023/12/10 07:26:16;;;;;;;14.10;8.47;;;9.60;99.90;;;;;;5083900;28;20714;-72
2023/12/10 07:28:41;;;;;;;12.00;5.97;;;9.70;99.90;;;;;;5083745;28;20419;-71
2023/12/10 07:31:07;;;;;;;11.43;4.60;;;9.80;99.90;;;;;;5084165;28;20433;-72
2023/12/10 07:33:33;;;;;;;9.97;3.30;;;9.60;99.90;;;;;;5086917;28;20173;-72
2023/12/10 07:35:59;;;;;;;7.13;2.90;;;9.40;99.90;;;;;;5086044;28;20293;-73
2023/12/10 07:38:24;;;;;;;9.43;2.60;;;9.50;99.90;;;;;;5084035;28;20380;-72
2023/12/10 07:40:50;;;;;;;7.23;2.40;;;9.70;99.90;;;;;;5083769;28;20900;-74
2023/12/10 07:43:15;;;;;;;13.57;4.00;;;9.60;99.90;;;;;;5084687;28;20518;-72
2023/12/10 07:45:41;;;;;;;8.33;3.40;;;9.40;99.90;;;;;;5093023;28;20654;-72
2023/12/10 07:48:07;;;;;;;10.13;3.43;;;9.20;99.90;;;;;;5092700;28;20224;-72
2023/12/10 07:50:32;;;;;;;10.40;3.17;;;9.40;99.90;;;;;;5092521;28;20215;-72
2023/12/10 07:52:58;;;;;;;8.90;3.53;;;9.50;99.90;;;;;;5100225;28;20168;-72
2023/12/10 07:55:24;;;;;;;8.57;3.87;;;9.60;99.90;;;;;;5113173;28;20190;-72
2023/12/10 07:57:49;;;;;;;9.97;5.40;;;9.60;99.90;;;;;;5113185;28;20452;-72
2023/12/10 08:00:15;;;;;;;9.07;3.37;;;9.70;99.90;;;;;;5115287;28;20199;-73
2023/12/10 08:02:41;;;;;;;10.47;2.80;;;9.70;99.90;;;;;;5111758;28;20158;-73
2023/12/10 08:05:07;;;;;;;10.30;4.07;;;9.50;99.90;;;;;;5096422;28;20202;-73
2023/12/10 08:07:34;;;;;;;12.90;3.87;;;9.50;99.90;;;;;;5096287;28;20161;-72
2023/12/10 08:09:59;;;;;;;8.03;2.93;;;9.60;99.90;;;;;;5096299;28;20430;-73
2023/12/10 08:12:25;;;;;;;12.30;3.63;;;9.70;99.90;;;;;;5099013;28;20170;-72
2023/12/10 08:14:50;;;;;;;10.17;3.60;;;9.70;99.90;;;;;;5116684;28;20194;-73
2023/12/10 08:17:16;;;;;;;13.63;3.90;;;9.70;99.90;;;;;;5116765;28;20217;-73
2023/12/10 08:19:42;;;;;;;9.60;2.80;;;9.70;99.90;;;;;;5116705;28;20626;-72
2023/12/10 08:22:07;;;;;;;10.60;3.00;;;9.80;99.90;;;;;;5116569;28;20300;-73
2023/12/10 08:24:33;;;;;;;8.97;3.30;;;9.90;99.90;;;;;;5096084;28;20172;-72
2023/12/10 08:26:59;;;;;;;9.33;3.33;;;9.90;99.90;;;;;;5096134;28;20399;-73
2023/12/10 08:29:24;;;;;;;11.97;3.37;;;9.80;99.90;;;;;;5096321;28;20531;-73
2023/12/10 08:31:50;;;;;;;12.37;3.90;;;9.90;99.90;;;;;;5096050;28;20179;-73
2023/12/10 08:34:16;;;;;;;8.37;3.70;;;9.90;99.90;;;;;;5107680;28;20245;-73
2023/12/10 08:36:41;;;;;;;11.70;3.70;;;9.90;99.90;;;;;;5096414;28;20274;-73
2023/12/10 08:39:08;;;;;;;10.17;3.40;;;9.90;99.90;;;;;;5096086;28;20169;-72
2023/12/10 08:41:34;;;;;;;6.40;3.47;;;10.00;99.90;;;;;;5096221;28;20233;-73
2023/12/10 08:44:00;;;;;;;9.17;3.20;;;9.90;99.90;;;;;;5111069;28;20802;-73
2023/12/10 08:46:25;;;;;;;14.27;3.70;;;10.00;99.90;;;;;;5116317;28;20215;-71
2023/12/10 08:48:51;;;;;;;10.47;3.70;;;10.00;99.90;;;;;;5116301;28;20169;-71
2023/12/10 08:51:16;;;;;;;8.13;3.37;;;10.00;99.90;;;;;;5115988;28;20196;-72
2023/12/10 08:53:42;;;;;;;8.10;3.47;;;10.20;99.90;;;;;;5105652;28;20255;-72
2023/12/10 08:56:08;;;;;;;11.30;2.93;;;10.30;99.90;;;;;;5095422;28;20189;-71
2023/12/10 08:58:33;;;;;;;10.63;3.13;;;10.30;99.90;;;;;;5095777;28;20166;-72
2023/12/10 09:01:00;;;;;;;7.47;2.90;;;10.00;99.90;;;;;;5095206;28;20484;-72
2023/12/10 09:03:26;;;;;;;7.60;2.70;;;10.10;99.90;;;;;;5105709;28;20645;-71
2023/12/10 09:05:52;;;;;;;6.53;2.90;;;9.90;99.90;;;;;;5115994;28;20408;-72
2023/12/10 09:08:17;;;;;;;9.37;3.30;;;9.80;99.90;;;;;;5116034;28;20427;-73
2023/12/10 09:10:44;;;;;;;10.47;3.13;;;9.70;99.90;;;;;;5112087;28;20191;-72
2023/12/10 09:13:09;;;;;;;11.47;3.70;;;9.60;99.90;;;;;;5103125;28;20165;-73
2023/12/10 09:15:35;;;;;;;10.27;3.70;;;9.60;99.90;;;;;;5115505;28;20459;-72
2023/12/10 09:18:02;;;;;;;9.80;2.23;;;9.70;99.90;;;;;;5115707;28;20530;-72
2023/12/10 09:20:27;;;;;;;9.47;2.83;;;9.80;99.90;;;;;;5115383;28;20196;-72
2023/12/10 09:22:53;;;;;;;9.73;3.20;;;9.80;99.90;;;;;;5109937;28;20397;-72
2023/12/10 09:25:19;;;;;;;10.93;3.80;;;9.90;99.90;;;;;;5095017;28;20167;-73
2023/12/10 09:27:44;;;;;;;13.20;2.60;;;9.90;99.90;;;;;;5094930;28;20170;-72
2023/12/10 09:30:10;;;;;;;9.27;3.63;;;10.20;99.90;;;;;;5094922;28;20193;-72
2023/12/10 09:32:36;;;;;;;10.53;3.13;;;10.30;99.90;;;;;;5097538;28;20174;-72
2023/12/10 09:35:04;;;;;;;7.43;2.60;;;10.30;99.90;;;;;;5115066;28;20210;-72
2023/12/10 09:37:29;;;;;;;11.70;3.17;;;10.40;99.90;;;;;;5115413;28;20404;-72
2023/12/10 09:39:55;;;;;;;7.57;3.13;;;10.20;99.90;;;;;;5115026;28;20953;-72
2023/12/10 09:42:20;;;;;;;9.77;3.40;;;10.20;99.90;;;;;;5114324;28;20182;-72
2023/12/10 09:44:46;;;;;;;9.67;2.77;;;10.20;99.90;;;;;;5094666;28;20168;-71
2023/12/10 09:47:12;;;;;;;9.03;3.40;;;10.20;99.90;;;;;;5094420;28;20192;-72
2023/12/10 09:49:42;;;;;;;9.60;3.00;;;10.30;99.90;;;;;;5094819;28;20177;-72
2023/12/10 09:52:09;;;;;;;6.77;3.10;;;10.30;99.90;;;;;;5093296;28;20174;-72
2023/12/10 09:54:41;;;;;;;8.77;2.63;;;10.40;99.90;;;;;;5113458;28;20892;-72
2023/12/10 09:57:08;;;;;;;8.73;3.00;;;10.30;99.90;;;;;;5114653;28;20397;-72
2023/12/10 09:59:34;;;;;;;10.00;3.30;;;10.30;99.90;;;;;;5114453;28;20431;-72
2023/12/10 10:01:59;;;;;;;7.53;3.27;;;10.40;99.90;;;;;;5115564;28;20434;-70
2023/12/10 10:04:25;;;;;;;9.53;2.43;;;10.40;99.90;;;;;;5096685;28;20406;-71
2023/12/10 10:06:51;;;;;;;8.03;2.23;;;10.50;99.90;;;;;;5094700;28;20543;-71
2023/12/10 10:09:16;;;;;;;7.63;2.07;;;10.50;99.90;;;;;;5094662;28;20505;-70
2023/12/10 10:11:48;;;;;;;9.50;2.83;;;10.30;99.90;;;;;;5094442;28;20190;-70
2023/12/10 10:14:14;;;;;;;6.63;2.80;;;10.40;99.90;;;;;;5110305;28;20176;-70
2023/12/10 10:16:47;;;;;;;6.53;2.30;;;10.50;99.90;;;;;;5114316;28;20453;-70
2023/12/10 10:19:13;;;;;;;7.20;2.73;;;10.50;99.90;;;;;;5114646;28;20388;-70
2023/12/10 10:21:42;;;;;;;8.10;2.53;;;10.70;99.90;;;;;;5113490;28;20449;-70
2023/12/10 10:24:08;;;;;;;7.00;2.87;;;10.70;99.90;;;;;;5099084;28;20408;-70
2023/12/10 10:26:34;;;;;;;6.67;3.10;;;10.70;99.90;;;;;;5093688;28;20767;-70
2023/12/10 10:29:02;;;;;;;8.43;2.50;;;10.80;99.90;;;;;;5093733;28;20467;-70
2023/12/10 10:31:28;;;;;;;6.77;3.03;;;10.90;99.90;;;;;;5093610;28;20804;-71
2023/12/10 10:33:55;;;;;;;6.30;2.20;;;10.70;99.90;;;;;;5106554;28;20454;-70
2023/12/10 10:36:22;;;;;;;7.33;2.83;;;10.60;99.90;;;;;;5114405;28;20449;-70
2023/12/10 10:38:49;;;;;;;7.10;2.87;;;10.80;99.90;;;;;;5114262;28;20417;-70
2023/12/10 10:41:16;;;;;;;6.80;2.70;;;11.00;99.90;;;;;;5113851;28;20422;-70
2023/12/10 10:43:41;;;;;;;7.30;2.20;;;11.00;99.90;;;;;;5102866;28;20407;-70
2023/12/10 10:46:07;;;;;;;4.13;2.03;;;10.90;99.90;;;;;;5093820;28;20408;-70
2023/12/10 10:48:35;;;;;;;8.30;2.83;;;11.00;99.90;;;;;;5093450;28;20281;-72
2023/12/10 10:51:01;;;;;;;6.97;2.80;;;11.20;99.90;;;;;;5093454;28;20209;-70
2023/12/10 10:53:28;;;;;;;7.70;3.10;;;11.20;99.90;;;;;;5102008;28;20959;-71
2023/12/10 10:55:53;;;;;;;4.87;2.10;;;11.20;99.90;;;;;;5113757;28;20192;-72
2023/12/10 10:58:23;;;;;;;6.23;2.20;;;11.20;99.90;;;;;;5110379;28;20457;-70
2023/12/10 11:00:49;;;;;;;8.63;2.60;;;11.40;99.90;;;;;;5113700;28;20621;-70
2023/12/10 11:03:16;;;;;;;9.17;2.57;;;11.20;99.90;;;;;;5107189;28;20408;-70
2023/12/10 11:05:42;;;;;;;7.70;2.17;;;11.10;99.90;;;;;;5093556;28;20193;-70
2023/12/10 11:08:08;;;;;;;10.40;2.70;;;11.20;99.90;;;;;;5093133;28;20415;-70
2023/12/10 11:10:35;;;;;;;9.10;2.67;;;11.10;99.90;;;;;;5093186;28;20220;-70
2023/12/10 11:13:00;;;;;;;4.80;2.00;;;11.20;99.90;;;;;;5098391;28;20400;-70
2023/12/10 11:15:30;;;;;;;5.77;1.80;;;11.10;99.90;;;;;;5093256;28;20543;-69
2023/12/10 11:18:02;;;;;;;7.07;2.60;;;11.20;99.90;;;;;;5093343;28;20251;-70
2023/12/10 11:20:37;;;;;;;4.93;2.23;;;11.10;99.90;;;;;;5091721;28;20812;-70
2023/12/10 11:23:11;;;;;;;9.03;2.87;;;11.20;99.90;;;;;;5098100;28;20418;-70
2023/12/10 11:25:38;;;;;;;7.93;2.30;;;11.10;99.90;;;;;;5113649;28;20429;-70
2023/12/10 11:28:15;;;;;;;6.83;2.30;;;11.40;99.90;;;;;;5113637;28;20399;-70
2023/12/10 11:30:45;;;;;;;6.93;2.37;;;11.50;99.90;;;;;;5113185;28;20467;-70
2023/12/10 11:33:15;;;;;;;9.80;3.30;;;11.30;99.90;;;;;;5107624;28;20411;-70
2023/12/10 11:35:41;;;;;;;11.27;3.23;;;11.20;99.90;;;;;;5097257;28;20449;-70
2023/12/10 11:38:08;;;;;;;7.83;2.80;;;11.10;99.90;;;;;;5097075;28;20495;-70
2023/12/10 11:40:34;;;;;;;6.93;3.00;;;11.10;99.90;;;;;;5097275;28;20427;-70
2023/12/10 11:43:07;;;;;;;5.43;2.33;;;11.10;99.90;;;;;;5101103;28;20502;-70
2023/12/10 11:45:33;;;;;;;10.90;3.23;;;10.90;99.90;;;;;;5118238;28;20554;-70
2023/12/10 11:47:59;;;;;;;8.57;3.03;;;11.10;99.90;;;;;;5117519;28;20494;-69
2023/12/10 11:50:25;;;;;;;5.93;2.60;;;11.00;99.90;;;;;;5117111;28;20524;-70
2023/12/10 11:52:51;;;;;;;5.70;2.87;;;10.90;99.90;;;;;;5114651;28;20896;-70
2023/12/10 11:55:17;;;;;;;13.10;3.50;;;11.00;99.90;;;;;;5096689;28;20709;-69
2023/12/10 11:57:43;;;;;;;10.30;3.27;;;11.00;99.90;;;;;;5096699;28;20303;-70
2023/12/10 12:00:11;;;;;;;11.07;3.30;;;11.10;99.90;;;;;;5096295;28;20921;-70
2023/12/10 12:02:55;;;;;;;9.07;3.07;;;11.20;99.90;;;;;;5097159;28;20406;-71
2023/12/10 12:05:20;;;;;;;9.17;2.90;;;11.20;99.90;;;;;;5116893;28;20398;-69
2023/12/10 12:07:49;;;;;;;12.03;3.37;;;11.20;99.90;;;;;;5116785;28;20524;-70
2023/12/10 12:10:17;;;;;;;7.40;3.17;;;11.20;99.90;;;;;;5098453;28;20189;-70
2023/12/10 12:12:45;;;;;;;10.80;3.30;;;11.30;99.90;;;;;;5115890;28;20406;-69
2023/12/10 12:15:12;;;;;;;9.60;3.10;;;11.30;99.90;;;;;;5096011;28;20605;-70
2023/12/10 12:17:38;;;;;;;8.30;3.23;;;11.70;99.90;;;;;;5096543;28;20762;-70
2023/12/10 12:20:17;;;;;;;10.20;3.33;;;12.00;99.90;;;;;;5096365;28;20433;-70
2023/12/10 12:22:46;;;;;;;8.60;3.07;;;12.00;99.90;;;;;;5097680;28;20785;-70
2023/12/10 12:25:12;;;;;;;10.07;2.87;;;12.00;99.90;;;;;;5099953;28;20414;-69
2023/12/10 12:27:38;;;;;;;7.77;3.60;;;11.90;99.90;;;;;;5096951;28;20798;-69
2023/12/10 12:30:05;;;;;;;6.67;3.60;;;11.60;99.90;;;;;;5095881;28;20427;-69
2023/12/10 12:32:30;;;;;;;8.23;2.57;;;11.70;99.90;;;;;;5096231;28;20181;-69
2023/12/10 12:34:56;;;;;;;10.00;3.50;;;11.60;99.90;;;;;;5115422;28;20411;-69
2023/12/10 12:37:22;;;;;;;12.67;2.67;;;11.90;99.90;;;;;;5116199;28;20537;-69
2023/12/10 12:39:47;;;;;;;6.70;2.67;;;11.80;99.90;;;;;;5116131;28;20171;-69
2023/12/10 12:42:13;;;;;;;10.17;3.13;;;11.70;99.90;;;;;;5116161;28;20200;-69